createdAt,value
2023-04-17T04:02:05.510Z,12.60
2023-04-17T04:06:20.265Z,12.52
2023-04-17T04:10:32.980Z,12.05
2023-04-17T04:14:44.938Z,12.93
2023-04-17T04:18:58.726Z,11.90
2023-04-17T04:23:10.742Z,11.80
2023-04-17T04:27:23.382Z,12.10
2023-04-17T04:31:37.867Z,13.02
2023-04-17T04:35:51.346Z,12.68
2023-04-17T04:40:10.502Z,12.77
2023-04-17T04:44:25.443Z,13.35
2023-04-17T04:48:42.831Z,13.10
2023-04-17T04:52:54.970Z,12.95
2023-04-17T04:57:18.615Z,15.55
2023-04-17T05:01:32.776Z,15.23
2023-04-17T05:05:44.871Z,14.30
2023-04-17T05:09:59.012Z,14.65
2023-04-17T05:14:12.008Z,15.18
2023-04-17T05:18:24.379Z,17.63
2023-04-17T05:22:36.237Z,17.13
2023-04-17T05:26:54.825Z,14.23
2023-04-17T05:31:06.937Z,15.48
2023-04-17T05:35:23.565Z,13.32
2023-04-17T05:39:36.204Z,15.45
2023-04-17T05:43:47.702Z,18.13
2023-04-17T05:47:59.320Z,17.95
2023-04-17T05:52:10.969Z,18.92
2023-04-17T05:56:27.492Z,16.30
2023-04-17T06:00:42.055Z,17.23
2023-04-17T06:04:58.597Z,14.98
2023-04-17T06:09:11.800Z,16.50
2023-04-17T06:13:24.546Z,14.52
2023-04-17T06:17:38.052Z,16.02
2023-04-17T06:21:50.162Z,17.70
2023-04-17T06:26:03.903Z,18.55
2023-04-17T06:30:15.448Z,17.67
2023-04-17T06:34:41.382Z,19.35
2023-04-17T06:38:59.860Z,19.58
2023-04-17T06:43:16.228Z,20.08
2023-04-17T06:47:27.860Z,17.50
2023-04-17T06:51:39.414Z,19.40
2023-04-17T06:55:51.154Z,18.95
2023-04-17T07:00:03.982Z,19.95
2023-04-17T07:04:17.733Z,18.48
2023-04-17T07:08:29.354Z,17.67
2023-04-17T07:12:41.044Z,19.05
2023-04-17T07:16:52.644Z,16.85
2023-04-17T07:21:04.234Z,18.13
2023-04-17T07:25:15.938Z,18.52
2023-04-17T07:29:27.556Z,18.38
2023-04-17T07:33:40.454Z,20.27
2023-04-17T07:37:52.505Z,20.02
2023-04-17T07:42:06.746Z,19.85
2023-04-17T07:46:18.303Z,21.83
2023-04-17T07:50:30.356Z,17.48
2023-04-17T07:54:41.920Z,19.83
2023-04-17T07:58:53.546Z,19.38
2023-04-17T08:03:08.399Z,18.65
2023-04-17T08:07:20.304Z,20.95
2023-04-17T08:11:35.693Z,22.27
2023-04-17T08:15:52.174Z,18.13
2023-04-17T08:20:11.931Z,17.27
2023-04-17T08:24:24.496Z,18.10
2023-04-17T08:28:36.024Z,17.92
2023-04-17T08:32:49.998Z,16.48
2023-04-17T08:37:01.733Z,17.00
2023-04-17T08:41:20.769Z,17.55
2023-04-17T08:45:35.424Z,16.05
2023-04-17T08:49:47.233Z,14.80
2023-04-17T08:53:58.872Z,15.65
2023-04-17T08:58:10.727Z,14.02
2023-04-17T09:02:23.613Z,16.98
2023-04-17T09:06:54.266Z,18.42
2023-04-17T09:11:17.255Z,16.55
2023-04-17T09:15:29.002Z,16.02
2023-04-17T09:20:09.343Z,17.58
2023-04-17T09:24:34.378Z,16.25
2023-04-17T09:29:11.883Z,17.00
2023-04-17T09:33:24.030Z,17.15
2023-04-17T09:37:50.887Z,14.38
2023-04-17T09:42:04.185Z,13.90
2023-04-17T09:46:32.024Z,14.70
2023-04-17T09:50:44.251Z,13.85
2023-04-17T09:54:56.251Z,14.00
2023-04-17T09:59:08.568Z,14.75
2023-04-17T10:03:20.771Z,15.73
2023-04-17T10:07:32.464Z,13.55
2023-04-17T10:11:46.118Z,13.52
2023-04-17T10:15:57.836Z,13.88
2023-04-17T10:20:15.457Z,12.18
2023-04-17T10:24:27.293Z,11.18
2023-04-17T10:28:49.560Z,9.95
2023-04-17T10:33:25.064Z,10.68
2023-04-17T10:37:51.884Z,10.20
2023-04-17T10:42:05.121Z,8.00
2023-04-17T10:46:17.095Z,9.20
2023-04-17T10:50:30.082Z,8.90
2023-04-17T10:55:21.360Z,8.25
2023-04-17T10:59:34.044Z,7.47
2023-04-17T11:03:47.130Z,8.05
2023-04-17T11:07:59.590Z,8.05
2023-04-17T11:12:12.312Z,9.88
2023-04-17T11:16:25.590Z,7.45
2023-04-17T11:20:38.567Z,8.68
2023-04-17T11:24:53.540Z,10.23
2023-04-17T11:29:17.020Z,7.88
2023-04-17T11:33:37.190Z,7.15
2023-04-17T11:38:22.481Z,10.60
2023-04-17T11:42:35.171Z,8.77
2023-04-17T11:46:52.349Z,6.95
2023-04-17T11:51:05.603Z,7.75
2023-04-17T11:55:18.071Z,10.07
2023-04-17T11:59:42.552Z,6.72
2023-04-17T12:03:59.154Z,9.80
2023-04-17T12:08:11.851Z,9.55
2023-04-17T12:12:24.202Z,6.82
2023-04-17T12:16:37.003Z,7.43
2023-04-17T12:20:49.474Z,8.73
2023-04-17T12:25:01.635Z,9.10
2023-04-17T12:29:14.734Z,9.45
2023-04-17T12:33:26.571Z,7.47
2023-04-17T12:37:39.250Z,7.32
2023-04-17T12:41:51.460Z,8.25
2023-04-17T12:46:03.776Z,7.55
2023-04-17T12:50:16.585Z,7.53
2023-04-17T12:54:29.134Z,8.35
2023-04-17T12:58:41.435Z,8.32
2023-04-17T13:02:53.515Z,9.15
2023-04-17T13:07:06.456Z,7.78
2023-04-17T13:11:19.409Z,8.60
2023-04-17T13:15:32.268Z,9.07
2023-04-17T13:19:44.562Z,8.43
2023-04-17T13:23:56.682Z,10.95
2023-04-17T13:28:09.271Z,10.13
2023-04-17T13:32:21.631Z,8.95
2023-04-17T13:36:36.459Z,8.90
2023-04-17T13:40:48.717Z,9.15
2023-04-17T13:45:00.794Z,8.90
2023-04-17T13:49:13.531Z,8.95
2023-04-17T13:53:26.025Z,10.35
2023-04-17T13:57:38.594Z,7.95
2023-04-17T14:01:51.038Z,8.13
2023-04-17T14:06:03.365Z,7.97
2023-04-17T14:10:16.515Z,8.20
2023-04-17T14:14:29.298Z,8.48
2023-04-17T14:18:40.897Z,9.30
2023-04-17T14:22:54.992Z,7.88
2023-04-17T14:27:07.033Z,10.32
2023-04-17T14:31:19.488Z,11.90
2023-04-17T14:35:33.396Z,8.80
2023-04-17T14:39:45.243Z,8.27
2023-04-17T14:43:56.875Z,7.80
2023-04-17T14:48:08.495Z,8.75
2023-04-17T14:52:20.038Z,9.55
2023-04-17T14:56:31.677Z,11.40
2023-04-17T15:00:43.246Z,9.40
2023-04-17T15:04:54.898Z,10.57
2023-04-17T15:09:06.700Z,8.68
2023-04-17T15:13:18.237Z,8.00
2023-04-17T15:17:29.815Z,9.10
2023-04-17T15:21:41.404Z,8.65
2023-04-17T15:25:55.258Z,8.05
2023-04-17T15:30:08.851Z,9.65
2023-04-17T15:34:20.626Z,7.63
2023-04-17T15:38:32.221Z,7.75
2023-04-17T15:42:44.028Z,9.55
2023-04-17T15:46:55.677Z,9.63
2023-04-17T15:51:07.192Z,7.63
2023-04-17T15:55:18.816Z,6.18
2023-04-17T15:59:31.994Z,5.00
2023-04-17T16:03:43.665Z,4.82
2023-04-17T16:07:55.351Z,3.67
2023-04-17T16:12:09.506Z,6.22
2023-04-17T16:16:21.038Z,4.45
2023-04-17T16:20:32.554Z,3.33
2023-04-17T16:24:45.111Z,5.00
2023-04-17T16:28:58.225Z,6.18
2023-04-17T16:33:09.754Z,3.78
2023-04-17T16:37:21.372Z,4.20
2023-04-17T16:41:32.871Z,3.70
2023-04-17T16:45:44.354Z,4.95
2023-04-17T16:49:55.905Z,3.50
2023-04-17T16:54:07.537Z,4.65
2023-04-17T16:58:19.353Z,5.55
2023-04-17T17:02:30.964Z,3.42
2023-04-17T17:06:42.533Z,3.88
2023-04-17T17:10:54.128Z,4.15
2023-04-17T17:15:06.796Z,3.65
2023-04-17T17:19:18.292Z,3.85
2023-04-17T17:23:29.789Z,3.40
2023-04-17T17:27:41.285Z,3.35
2023-04-17T17:31:52.885Z,5.15
2023-04-17T17:36:04.611Z,3.75
2023-04-17T17:40:16.188Z,4.53
2023-04-17T17:44:27.680Z,4.18
2023-04-17T17:48:39.192Z,3.83
2023-04-17T17:52:50.680Z,4.03
2023-04-17T17:57:02.757Z,4.30
2023-04-17T18:01:14.348Z,4.05
2023-04-17T18:05:25.958Z,4.63
2023-04-17T18:09:37.503Z,6.55
2023-04-17T18:13:49.219Z,5.28
2023-04-17T18:18:00.848Z,4.13
2023-04-17T18:22:12.364Z,4.57
2023-04-17T18:26:23.886Z,4.20
2023-04-17T18:30:35.398Z,5.38
2023-04-17T18:34:49.208Z,4.80
2023-04-17T18:39:00.809Z,6.00
2023-04-17T18:43:12.395Z,4.90
2023-04-17T18:47:23.957Z,4.65
2023-04-17T18:51:37.444Z,6.43
2023-04-17T18:55:48.981Z,4.88
2023-04-17T19:00:00.567Z,10.55
2023-04-17T19:04:12.251Z,7.13
2023-04-17T19:08:23.911Z,6.43
2023-04-17T19:12:36.144Z,8.82
2023-04-17T19:16:47.722Z,6.72
2023-04-17T19:20:59.307Z,5.00
2023-04-17T19:25:11.087Z,8.05
2023-04-17T19:29:22.594Z,6.00
2023-04-17T19:33:34.264Z,6.85
2023-04-17T19:37:46.136Z,6.13
2023-04-17T19:41:57.963Z,7.22
2023-04-17T19:46:09.817Z,6.78
2023-04-17T19:50:21.990Z,6.53
2023-04-17T19:54:33.506Z,6.50
2023-04-17T19:58:46.531Z,6.05
2023-04-17T20:02:58.229Z,5.80
2023-04-17T20:07:09.815Z,9.13
2023-04-17T20:11:21.645Z,7.00
2023-04-17T20:15:33.140Z,6.82
2023-04-17T20:19:45.185Z,6.07
2023-04-17T20:23:57.699Z,9.82
2023-04-17T20:28:09.623Z,10.23
2023-04-17T20:32:21.394Z,11.60
2023-04-17T20:36:32.986Z,11.77
2023-04-17T20:40:44.622Z,11.05
2023-04-17T20:44:56.178Z,10.45
2023-04-17T20:49:07.683Z,13.30
2023-04-17T20:53:19.235Z,11.05
2023-04-17T20:57:30.887Z,9.07
2023-04-17T21:01:42.429Z,10.40
2023-04-17T21:05:53.925Z,9.18
2023-04-17T21:10:06.151Z,10.13
2023-04-17T21:14:17.706Z,8.93
2023-04-17T21:18:29.293Z,9.50
2023-04-17T21:22:40.799Z,7.65
2023-04-17T21:26:58.199Z,7.30
